createdAt,value
2023-05-22T00:03:16.132Z,81.55
2023-05-22T00:07:34.255Z,81.73
2023-05-22T00:11:53.074Z,81.50
2023-05-22T00:16:11.211Z,81.02
2023-05-22T00:20:29.008Z,80.09
2023-05-22T00:24:46.551Z,78.93
2023-05-22T00:29:06.664Z,76.72
2023-05-22T00:33:25.272Z,76.31
2023-05-22T00:37:42.859Z,75.40
2023-05-22T00:42:01.092Z,74.50
2023-05-22T00:46:23.149Z,74.81
2023-05-22T00:50:43.181Z,74.30
2023-05-22T00:55:01.120Z,73.94
2023-05-22T00:59:20.851Z,74.06
2023-05-22T01:03:45.136Z,74.37
2023-05-22T01:08:05.864Z,73.78
2023-05-22T01:12:58.499Z,73.76
2023-05-22T01:17:49.149Z,74.18
2023-05-22T01:23:13.025Z,74.47
2023-05-22T01:28:08.597Z,74.86
2023-05-22T01:32:29.210Z,75.36
2023-05-22T01:36:49.229Z,75.66
2023-05-22T01:41:06.819Z,75.38
2023-05-22T01:45:25.089Z,75.60
2023-05-22T01:49:43.080Z,75.97
2023-05-22T01:54:13.444Z,76.25
2023-05-22T01:59:13.266Z,75.76
2023-05-22T02:03:33.458Z,75.74
2023-05-22T02:07:52.037Z,75.23
2023-05-22T02:12:10.297Z,75.40
2023-05-22T02:16:30.457Z,75.86
2023-05-22T02:20:49.919Z,75.87
2023-05-22T02:25:11.890Z,75.27
2023-05-22T02:29:37.123Z,75.11
2023-05-22T02:33:54.723Z,75.36
2023-05-22T02:38:13.843Z,75.51
2023-05-22T02:42:32.430Z,75.75
2023-05-22T02:46:51.616Z,75.13
2023-05-22T02:51:09.370Z,75.42
2023-05-22T02:55:27.202Z,75.60
2023-05-22T02:59:46.087Z,75.21
2023-05-22T03:04:04.832Z,75.21
2023-05-22T03:08:23.620Z,74.92
2023-05-22T03:12:41.707Z,75.00
2023-05-22T03:17:00.244Z,75.25
2023-05-22T03:21:17.875Z,74.66
2023-05-22T03:25:35.915Z,74.69
2023-05-22T03:29:53.596Z,73.96
2023-05-22T03:34:12.322Z,73.87
2023-05-22T03:38:29.871Z,73.59
2023-05-22T03:42:47.514Z,73.41
2023-05-22T03:47:05.664Z,72.65
2023-05-22T03:51:23.713Z,72.79
2023-05-22T03:55:41.672Z,72.14
2023-05-22T04:00:06.647Z,72.10
2023-05-22T04:04:27.351Z,71.05
2023-05-22T04:08:44.945Z,70.59
2023-05-22T04:13:02.954Z,70.59
2023-05-22T04:17:20.464Z,69.83
2023-05-22T04:21:38.538Z,69.29
2023-05-22T04:25:56.116Z,68.38
2023-05-22T04:30:17.709Z,68.31
2023-05-22T04:34:39.053Z,67.64
2023-05-22T04:38:56.608Z,67.12
2023-05-22T04:43:14.865Z,66.51
2023-05-22T04:47:33.396Z,66.09
2023-05-22T04:51:52.596Z,65.87
2023-05-22T04:56:11.857Z,65.17
2023-05-22T05:00:32.638Z,64.09
2023-05-22T05:04:50.428Z,64.15
2023-05-22T05:09:08.819Z,62.07
2023-05-22T05:13:26.433Z,61.85
2023-05-22T05:17:45.694Z,62.12
2023-05-22T05:22:03.573Z,61.16
2023-05-22T05:26:23.010Z,60.23
2023-05-22T05:30:42.048Z,59.72
2023-05-22T05:35:01.097Z,59.42
2023-05-22T05:39:19.524Z,57.33
2023-05-22T05:43:37.388Z,60.25
2023-05-22T05:47:56.224Z,59.32
2023-05-22T05:52:13.929Z,59.70
2023-05-22T05:56:32.311Z,59.59
2023-05-22T06:00:49.881Z,59.42
2023-05-22T06:05:10.571Z,59.46
2023-05-22T06:09:28.321Z,58.33
2023-05-22T06:13:45.959Z,58.37
2023-05-22T06:18:04.133Z,56.44
2023-05-22T06:22:22.288Z,55.69
2023-05-22T06:26:39.813Z,56.83
2023-05-22T06:30:59.304Z,56.48
2023-05-22T06:35:16.397Z,55.36
2023-05-22T06:39:34.840Z,54.31
2023-05-22T06:43:53.782Z,53.03
2023-05-22T06:48:12.969Z,51.61
2023-05-22T06:52:32.032Z,51.35
2023-05-22T06:56:50.986Z,49.96
2023-05-22T07:01:09.360Z,48.57
2023-05-22T07:05:27.826Z,48.27
2023-05-22T07:09:45.408Z,46.25
2023-05-22T07:14:03.839Z,44.51
2023-05-22T07:18:21.421Z,44.20
2023-05-22T07:22:40.399Z,43.59
2023-05-22T07:26:58.423Z,43.57
2023-05-22T07:31:16.572Z,43.79
2023-05-22T07:35:35.789Z,43.08
2023-05-22T07:39:53.406Z,43.33
2023-05-22T07:44:11.629Z,43.97
2023-05-22T07:48:32.232Z,41.34
2023-05-22T07:52:51.339Z,42.34
2023-05-22T07:57:09.378Z,43.47
2023-05-22T08:01:27.996Z,42.62
2023-05-22T08:05:47.099Z,44.25
2023-05-22T08:10:13.617Z,44.69
2023-05-22T08:14:31.485Z,44.51
2023-05-22T08:18:50.008Z,44.37
2023-05-22T08:23:08.055Z,45.99
2023-05-22T08:27:25.710Z,42.64
2023-05-22T08:31:43.935Z,42.79
2023-05-22T08:36:02.929Z,41.96
2023-05-22T08:40:20.925Z,41.28
2023-05-22T08:44:38.884Z,41.39
2023-05-22T08:48:59.873Z,43.33
2023-05-22T08:53:24.184Z,41.18
2023-05-22T08:57:43.965Z,42.25
2023-05-22T09:02:03.223Z,41.63
2023-05-22T09:06:21.907Z,42.17
2023-05-22T09:10:40.640Z,41.90
2023-05-22T09:15:10.761Z,37.71
2023-05-22T09:19:30.997Z,39.85
2023-05-22T09:23:51.182Z,40.26
2023-05-22T09:28:09.184Z,37.51
2023-05-22T09:32:30.001Z,36.47
2023-05-22T09:36:50.799Z,37.71
2023-05-22T09:41:08.872Z,37.06
2023-05-22T09:45:28.151Z,35.63
2023-05-22T09:49:46.483Z,34.73
2023-05-22T09:54:07.870Z,36.58
2023-05-22T09:58:31.002Z,33.83
2023-05-22T10:02:54.797Z,34.00
2023-05-22T10:07:12.635Z,36.19
2023-05-22T10:11:32.577Z,34.63
2023-05-22T10:15:52.437Z,36.17
2023-05-22T10:20:11.156Z,32.84
2023-05-22T10:24:30.982Z,30.70
2023-05-22T10:29:17.532Z,30.72
2023-05-22T10:33:48.323Z,29.55
2023-05-22T10:38:55.523Z,28.82
2023-05-22T10:43:13.874Z,31.21
2023-05-22T10:47:34.837Z,29.25
2023-05-22T10:51:57.420Z,29.82
2023-05-22T10:56:17.396Z,28.94
2023-05-22T11:00:39.402Z,25.02
2023-05-22T11:05:18.991Z,26.10
2023-05-22T11:09:49.041Z,24.91
2023-05-22T11:14:06.812Z,21.96
2023-05-22T11:18:28.558Z,24.06
2023-05-22T11:23:06.171Z,23.15
2023-05-22T11:27:24.713Z,22.34
2023-05-22T11:31:42.346Z,23.57
2023-05-22T11:36:02.661Z,24.04
2023-05-22T11:40:22.749Z,22.39
2023-05-22T11:44:42.107Z,24.38
2023-05-22T11:48:59.947Z,23.46
2023-05-22T11:53:18.946Z,24.82
2023-05-22T11:57:37.582Z,19.57
2023-05-22T12:01:55.544Z,19.74
2023-05-22T12:06:15.774Z,17.81
2023-05-22T12:10:34.813Z,18.00
2023-05-22T12:14:53.746Z,20.39
2023-05-22T12:19:12.662Z,19.72
2023-05-22T12:23:32.734Z,19.96
2023-05-22T12:27:51.668Z,21.29
2023-05-22T12:32:13.258Z,21.08
2023-05-22T12:36:43.053Z,22.33
2023-05-22T12:41:00.781Z,22.49
2023-05-22T12:45:19.863Z,23.72
2023-05-22T12:49:37.386Z,25.27
2023-05-22T12:53:56.409Z,25.49
2023-05-22T12:58:14.278Z,21.24
2023-05-22T13:02:32.378Z,18.98
2023-05-22T13:06:51.114Z,19.57
2023-05-22T13:11:09.525Z,20.54
2023-05-22T13:15:31.404Z,22.00
2023-05-22T13:19:49.205Z,23.32
2023-05-22T13:24:08.485Z,25.62
2023-05-22T13:28:25.990Z,25.82
2023-05-22T13:32:43.519Z,27.71
2023-05-22T13:37:02.116Z,25.65
2023-05-22T13:41:21.318Z,20.63
2023-05-22T13:45:42.054Z,16.98
2023-05-22T13:50:01.293Z,18.63
2023-05-22T13:54:19.099Z,15.44
2023-05-22T13:58:36.806Z,15.29
2023-05-22T14:02:56.460Z,14.48
2023-05-22T14:07:18.931Z,14.09
2023-05-22T14:11:36.538Z,16.14
2023-05-22T14:15:55.766Z,12.92
2023-05-22T14:20:13.409Z,15.16
2023-05-22T14:24:32.189Z,14.41
2023-05-22T14:28:50.098Z,15.27
2023-05-22T14:33:08.115Z,14.21
2023-05-22T14:37:26.651Z,16.43
2023-05-22T14:41:44.185Z,19.26
2023-05-22T14:46:02.083Z,20.50
2023-05-22T14:50:20.957Z,21.86
2023-05-22T14:54:39.530Z,18.23
2023-05-22T14:58:58.771Z,16.86
2023-05-22T15:03:17.051Z,16.15
2023-05-22T15:07:43.900Z,15.43
2023-05-22T15:12:03.450Z,15.35
2023-05-22T15:16:22.801Z,15.76
2023-05-22T15:20:41.956Z,15.69
2023-05-22T15:25:08.370Z,14.64
2023-05-22T15:29:26.533Z,13.88
2023-05-22T15:33:44.148Z,15.09
2023-05-22T15:38:03.961Z,16.12
2023-05-22T15:42:22.170Z,17.46
2023-05-22T15:46:41.429Z,18.00
2023-05-22T15:50:59.815Z,20.31
2023-05-22T15:55:17.917Z,19.77
2023-05-22T15:59:35.542Z,20.78
2023-05-22T16:03:55.014Z,21.71
2023-05-22T16:08:17.182Z,23.97
2023-05-22T16:12:34.770Z,28.72
2023-05-22T16:16:52.484Z,29.64
2023-05-22T16:21:10.058Z,30.31
2023-05-22T16:25:28.864Z,31.06
2023-05-22T16:29:46.739Z,29.52
2023-05-22T16:34:06.307Z,29.37
2023-05-22T16:38:24.394Z,32.19
2023-05-22T16:42:42.500Z,33.28
2023-05-22T16:47:00.130Z,32.43
2023-05-22T16:51:18.625Z,32.90
2023-05-22T16:55:37.115Z,31.96
2023-05-22T16:59:57.728Z,32.11
2023-05-22T17:04:16.708Z,35.45
2023-05-22T17:08:34.314Z,37.00
2023-05-22T17:12:53.504Z,39.26
2023-05-22T17:17:11.302Z,40.92
2023-05-22T17:21:29.516Z,43.74
2023-05-22T17:25:48.336Z,45.51
2023-05-22T17:30:07.882Z,47.45
2023-05-22T17:34:26.258Z,49.38
2023-05-22T17:38:43.813Z,51.84
2023-05-22T17:43:02.909Z,53.79
2023-05-22T17:47:20.581Z,55.26
2023-05-22T17:51:39.562Z,57.17
2023-05-22T17:55:59.068Z,58.64
2023-05-22T18:00:18.722Z,60.72
2023-05-22T18:04:37.564Z,62.10
2023-05-22T18:08:57.398Z,64.05
2023-05-22T18:13:15.157Z,65.47
2023-05-22T18:17:34.452Z,66.97
2023-05-22T18:21:53.791Z,68.04
2023-05-22T18:26:11.964Z,69.36
2023-05-22T18:30:30.030Z,70.74
2023-05-22T18:34:49.703Z,72.28
2023-05-22T18:39:09.070Z,72.72
2023-05-22T18:43:29.032Z,72.88
2023-05-22T18:47:48.161Z,73.45
2023-05-22T18:52:06.767Z,74.31
2023-05-22T18:56:24.825Z,75.13
2023-05-22T19:00:42.876Z,75.71
2023-05-22T19:05:01.339Z,76.60
2023-05-22T19:09:19.541Z,77.50
2023-05-22T19:13:38.343Z,78.13
2023-05-22T19:17:56.928Z,78.65
2023-05-22T19:22:17.960Z,78.89
2023-05-22T19:26:37.552Z,80.08
2023-05-22T19:30:58.710Z,80.67
2023-05-22T19:35:17.768Z,80.98
2023-05-22T19:39:36.381Z,81.17
2023-05-22T19:43:56.365Z,81.66
2023-05-22T19:48:16.158Z,81.60
2023-05-22T19:52:34.800Z,81.40
2023-05-22T19:56:53.253Z,82.27
2023-05-22T20:01:11.825Z,82.83
2023-05-22T20:05:30.906Z,83.06
2023-05-22T20:09:48.485Z,82.68
2023-05-22T20:14:08.383Z,82.68
2023-05-22T20:18:25.670Z,82.86
2023-05-22T20:22:44.028Z,83.22
2023-05-22T20:27:04.960Z,82.84
2023-05-22T20:31:23.270Z,82.58
2023-05-22T20:35:41.173Z,83.09
2023-05-22T20:40:04.656Z,82.87
2023-05-22T20:44:25.388Z,83.11
2023-05-22T20:48:49.672Z,83.72
2023-05-22T20:53:07.827Z,83.84
2023-05-22T20:57:25.749Z,84.23
2023-05-22T21:01:44.244Z,83.76
2023-05-22T21:06:01.837Z,83.18
2023-05-22T21:10:20.245Z,82.44
2023-05-22T21:14:39.080Z,83.22
2023-05-22T21:18:58.297Z,83.88
2023-05-22T21:23:16.056Z,84.15
2023-05-22T21:27:34.512Z,83.79
2023-05-22T21:31:52.256Z,83.93
2023-05-22T21:36:11.100Z,84.26
2023-05-22T21:40:28.646Z,84.66
2023-05-22T21:44:46.863Z,84.97
2023-05-22T21:49:06.684Z,85.18
2023-05-22T21:53:26.171Z,85.31
2023-05-22T21:57:47.172Z,84.95
2023-05-22T22:02:05.150Z,84.23
2023-05-22T22:06:23.285Z,83.67
2023-05-22T22:10:41.016Z,82.70
2023-05-22T22:14:59.485Z,82.17
2023-05-22T22:19:17.635Z,81.73
2023-05-22T22:23:35.286Z,82.20
2023-05-22T22:27:54.036Z,82.19
2023-05-22T22:32:13.403Z,82.24
2023-05-22T22:36:32.373Z,82.41
2023-05-22T22:40:49.897Z,82.50
2023-05-22T22:45:11.054Z,82.29
2023-05-22T22:49:28.731Z,82.04
2023-05-22T22:53:46.769Z,81.82
2023-05-22T22:58:04.684Z,81.67
2023-05-22T23:02:22.950Z,81.48
2023-05-22T23:06:42.740Z,81.36
2023-05-22T23:11:00.641Z,81.26
2023-05-22T23:15:19.516Z,81.53
2023-05-22T23:19:37.040Z,81.45
2023-05-22T23:23:56.177Z,80.55
2023-05-22T23:28:13.744Z,80.59
2023-05-22T23:32:31.853Z,80.42
2023-05-22T23:36:50.384Z,80.36
2023-05-22T23:41:07.921Z,80.39
2023-05-22T23:45:25.692Z,81.43
2023-05-22T23:49:43.281Z,81.10
2023-05-22T23:54:02.032Z,81.48
2023-05-22T23:58:21.589Z,82.11
